Terminal Aerodrome Forecast
Issued by NWS Wilmington, OH

Current Version | Previous Version | Graphics & Text | Print | Product List | Glossary On
Versions: 1 2 3 4 5 6 7 8 9 10 11 12 13 14 15 16 17 18 19 20 21 22 23 24 25
000
FTUS41 KILN 290752 AAA
TAFILN
TAF AMD
KILN 290752Z 2908/3006 26008KT P6SM SCT080
      TEMPO 2908/2912 5SM BR
     FM291600 24012KT P6SM SCT250
     FM300100 23008KT P6SM SCT080 BKN200=

USA.gov is the U.S. government's official web portal to all federal, state and local government web resources and services.